createdAt,value
2022-10-21T00:00:22.264Z,14.17
2022-10-21T00:01:22.257Z,14.26
2022-10-21T00:02:22.280Z,14.20
2022-10-21T00:03:22.258Z,14.29
2022-10-21T00:04:22.306Z,14.33
2022-10-21T00:05:22.263Z,14.25
2022-10-21T00:06:22.253Z,14.33
2022-10-21T00:07:22.250Z,14.22
2022-10-21T00:08:22.253Z,14.30
2022-10-21T00:09:22.249Z,14.33
2022-10-21T00:10:22.249Z,14.30
2022-10-21T00:11:22.247Z,14.26
2022-10-21T00:12:22.246Z,14.20
2022-10-21T00:13:22.242Z,14.22
2022-10-21T00:14:22.245Z,14.22
2022-10-21T00:15:22.239Z,14.22
2022-10-21T00:16:22.243Z,14.20
2022-10-21T00:17:22.241Z,14.23
2022-10-21T00:18:22.256Z,14.36
2022-10-21T00:19:22.232Z,14.25
2022-10-21T00:21:22.233Z,14.20
2022-10-21T00:22:22.232Z,14.25
2022-10-21T00:23:22.227Z,14.15
2022-10-21T00:24:22.233Z,14.20
2022-10-21T00:25:22.226Z,14.23
2022-10-21T00:26:22.228Z,14.23
2022-10-21T00:27:22.222Z,14.23
2022-10-21T00:28:22.220Z,14.10
2022-10-21T00:30:22.224Z,14.17
2022-10-21T00:31:22.217Z,14.18
2022-10-21T00:32:22.218Z,14.20
2022-10-21T00:33:22.220Z,14.17
2022-10-21T00:34:24.818Z,14.28
2022-10-21T00:35:22.217Z,14.28
2022-10-21T00:36:22.216Z,14.18
2022-10-21T00:37:22.212Z,14.23
2022-10-21T00:39:22.208Z,14.23
2022-10-21T00:40:22.211Z,14.07
2022-10-21T00:41:22.206Z,14.20
2022-10-21T00:42:22.207Z,14.17
2022-10-21T00:43:22.202Z,14.22
2022-10-21T00:44:22.199Z,14.18
2022-10-21T00:45:22.201Z,14.26
2022-10-21T00:46:22.198Z,14.17
2022-10-21T00:47:22.197Z,14.18
2022-10-21T00:48:22.197Z,14.20
2022-10-21T00:49:22.192Z,14.18
2022-10-21T00:50:22.211Z,14.18
2022-10-21T00:51:22.191Z,14.26
2022-10-21T00:52:22.194Z,14.18
2022-10-21T00:53:22.195Z,14.15
2022-10-21T00:54:22.190Z,14.18
2022-10-21T00:55:22.186Z,14.23
2022-10-21T00:56:22.185Z,14.22
2022-10-21T00:57:22.434Z,14.22
2022-10-21T00:58:22.183Z,14.14
2022-10-21T00:59:22.179Z,14.15
2022-10-21T01:00:22.180Z,14.11
2022-10-21T01:01:22.217Z,14.18
2022-10-21T01:02:22.178Z,14.17
2022-10-21T01:03:22.175Z,14.10
2022-10-21T01:04:22.185Z,14.14
2022-10-21T01:05:22.171Z,14.18
2022-10-21T01:06:22.202Z,14.17
2022-10-21T01:07:22.168Z,14.22
2022-10-21T01:08:22.169Z,14.15
2022-10-21T01:09:22.171Z,14.14
2022-10-21T01:10:22.170Z,14.20
2022-10-21T01:11:22.164Z,14.20
2022-10-21T01:12:22.164Z,14.17
2022-10-21T01:13:22.165Z,14.20
2022-10-21T01:14:22.173Z,14.17
2022-10-21T01:15:22.156Z,14.15
2022-10-21T01:16:22.161Z,14.17
2022-10-21T01:17:40.339Z,14.14
2022-10-21T01:18:22.158Z,14.20
2022-10-21T01:19:22.154Z,14.10
2022-10-21T01:20:22.156Z,14.17
2022-10-21T01:21:22.152Z,14.22
2022-10-21T01:22:22.173Z,14.20
2022-10-21T01:23:22.150Z,14.25
2022-10-21T01:24:22.162Z,14.14
2022-10-21T01:25:22.145Z,14.15
2022-10-21T01:26:22.147Z,14.18
2022-10-21T01:27:22.152Z,14.14
2022-10-21T01:28:22.155Z,14.14
2022-10-21T01:29:22.147Z,14.07
2022-10-21T01:30:22.141Z,14.15
2022-10-21T01:31:22.137Z,14.04
2022-10-21T01:32:22.137Z,14.11
2022-10-21T01:33:22.136Z,13.95
2022-10-21T01:34:22.136Z,13.87
2022-10-21T01:35:22.141Z,13.93
2022-10-21T01:36:22.134Z,13.93
2022-10-21T01:37:22.132Z,13.92
2022-10-21T01:38:22.154Z,13.87
2022-10-21T01:39:22.127Z,13.92
2022-10-21T01:40:22.127Z,13.99
2022-10-21T01:41:22.132Z,13.92
2022-10-21T01:42:22.135Z,14.03
2022-10-21T01:43:22.123Z,13.93
2022-10-21T01:44:22.119Z,13.90
2022-10-21T01:45:22.120Z,13.79
2022-10-21T01:46:22.119Z,13.85
2022-10-21T01:47:22.120Z,13.86
2022-10-21T01:48:22.117Z,13.93
2022-10-21T01:49:22.111Z,13.79
2022-10-21T01:50:22.115Z,13.85
2022-10-21T01:51:22.176Z,13.95
2022-10-21T01:52:22.112Z,13.86
2022-10-21T01:53:22.106Z,13.87
2022-10-21T01:54:22.130Z,13.95
2022-10-21T01:55:22.104Z,13.93
2022-10-21T01:56:22.105Z,13.81
2022-10-21T01:57:22.303Z,13.90
2022-10-21T01:58:22.106Z,13.92
2022-10-21T01:59:22.101Z,13.95
2022-10-21T02:00:22.137Z,13.93
2022-10-21T02:01:22.163Z,13.89
2022-10-21T02:02:22.100Z,13.87
2022-10-21T02:03:22.094Z,13.95
2022-10-21T02:04:22.096Z,13.78
2022-10-21T02:05:22.093Z,13.90
2022-10-21T02:06:22.098Z,13.95
2022-10-21T02:07:22.094Z,13.89
2022-10-21T02:08:22.091Z,13.87
2022-10-21T02:09:22.207Z,13.93
2022-10-21T02:10:22.110Z,13.92
2022-10-21T02:11:22.082Z,13.78
2022-10-21T02:12:22.082Z,13.78
2022-10-21T02:13:22.083Z,13.86
2022-10-21T02:14:22.083Z,13.89
2022-10-21T02:15:22.078Z,13.87
2022-10-21T02:16:22.086Z,13.90
2022-10-21T02:17:22.078Z,13.90
2022-10-21T02:18:22.086Z,13.92
2022-10-21T02:19:22.164Z,13.90
2022-10-21T02:20:22.075Z,13.83
2022-10-21T02:21:22.071Z,13.89
2022-10-21T02:22:22.093Z,13.90
2022-10-21T02:23:22.068Z,13.93
2022-10-21T02:24:22.070Z,13.89
2022-10-21T02:25:22.064Z,13.96
2022-10-21T02:26:22.087Z,13.87
2022-10-21T02:27:22.058Z,13.85
2022-10-21T02:28:22.059Z,13.87
2022-10-21T02:29:22.060Z,13.86
2022-10-21T02:30:22.062Z,13.85
2022-10-21T02:31:22.061Z,13.81
2022-10-21T02:32:22.054Z,13.89
2022-10-21T02:33:22.051Z,13.72
2022-10-21T02:34:22.056Z,13.72
2022-10-21T02:35:22.048Z,13.77
2022-10-21T02:36:22.051Z,13.72
2022-10-21T02:37:22.046Z,13.78
2022-10-21T02:38:22.048Z,13.77
2022-10-21T02:39:22.042Z,13.75
2022-10-21T02:40:22.052Z,13.75
2022-10-21T02:41:22.040Z,13.75
2022-10-21T02:42:22.061Z,13.70
2022-10-21T02:43:22.039Z,13.75
2022-10-21T02:44:22.038Z,13.72
2022-10-21T02:45:22.041Z,13.75
2022-10-21T02:46:22.041Z,13.77
2022-10-21T02:47:22.034Z,13.77
2022-10-21T02:48:22.033Z,13.75
2022-10-21T02:49:22.033Z,13.77
2022-10-21T02:50:22.027Z,13.79
2022-10-21T02:51:22.027Z,13.75
2022-10-21T02:52:22.026Z,13.77
2022-10-21T02:53:22.025Z,13.79
2022-10-21T02:54:22.023Z,13.77
2022-10-21T02:55:22.019Z,13.77
2022-10-21T02:56:22.074Z,13.70
2022-10-21T02:57:22.026Z,13.68
2022-10-21T02:58:22.033Z,13.71
2022-10-21T02:59:22.016Z,13.74
2022-10-21T03:00:22.015Z,13.77
2022-10-21T03:01:22.090Z,13.71
2022-10-21T03:02:22.026Z,13.71
2022-10-21T03:03:22.015Z,13.77
2022-10-21T03:04:22.019Z,13.75
2022-10-21T03:05:22.063Z,13.78
2022-10-21T03:06:22.004Z,13.79
2022-10-21T03:07:22.006Z,13.75
2022-10-21T03:08:22.001Z,13.75
2022-10-21T03:09:22.006Z,13.87
2022-10-21T03:10:22.000Z,13.79
2022-10-21T03:11:22.001Z,13.77
2022-10-21T03:12:21.998Z,13.74
2022-10-21T03:13:21.996Z,13.86
2022-10-21T03:14:22.016Z,13.78
2022-10-21T03:15:21.992Z,13.89
2022-10-21T03:16:21.994Z,13.72
2022-10-21T03:17:25.151Z,13.75
2022-10-21T03:18:21.993Z,13.72
2022-10-21T03:19:21.983Z,13.79
2022-10-21T03:20:21.981Z,13.74
2022-10-21T03:21:21.983Z,13.90
2022-10-21T03:22:21.978Z,13.77
2022-10-21T03:23:21.980Z,13.87
2022-10-21T03:24:28.318Z,13.83
2022-10-21T03:25:21.981Z,13.85
2022-10-21T03:26:21.973Z,13.89
2022-10-21T03:27:22.068Z,13.83
2022-10-21T03:28:21.973Z,13.83
2022-10-21T03:29:22.203Z,13.86
2022-10-21T03:30:21.990Z,13.93
2022-10-21T03:31:21.966Z,13.92
2022-10-21T03:32:21.966Z,13.87
2022-10-21T03:33:21.965Z,13.92
2022-10-21T03:34:21.962Z,13.90
2022-10-21T03:35:21.962Z,13.92
2022-10-21T03:36:21.957Z,13.92
2022-10-21T03:37:21.961Z,13.87
2022-10-21T03:38:21.958Z,13.78
2022-10-21T03:39:21.964Z,13.90
2022-10-21T03:40:21.954Z,13.79
2022-10-21T03:41:21.960Z,13.86
2022-10-21T03:42:21.952Z,13.90
2022-10-21T03:43:21.957Z,13.89
2022-10-21T03:44:21.951Z,13.81
2022-10-21T03:45:21.948Z,13.86
2022-10-21T03:46:21.962Z,13.87
2022-10-21T03:47:21.950Z,13.83
2022-10-21T03:48:21.945Z,13.89
2022-10-21T03:49:21.985Z,13.83
2022-10-21T03:50:25.977Z,13.81
2022-10-21T03:51:21.938Z,13.86
2022-10-21T03:52:21.935Z,13.90
2022-10-21T03:53:38.132Z,13.87
2022-10-21T03:54:21.937Z,13.89
2022-10-21T03:55:21.934Z,13.85
2022-10-21T03:56:21.929Z,13.79
2022-10-21T03:57:21.932Z,13.83
2022-10-21T03:58:21.930Z,13.85
2022-10-21T03:59:21.927Z,13.86
2022-10-21T04:00:21.928Z,13.86
2022-10-21T04:01:21.961Z,13.79
2022-10-21T04:02:22.200Z,13.81
2022-10-21T04:03:21.920Z,13.74
2022-10-21T04:04:21.921Z,13.85
2022-10-21T04:05:21.919Z,13.83
2022-10-21T04:06:21.914Z,13.83
2022-10-21T04:07:21.915Z,13.81
2022-10-21T04:08:21.912Z,13.85
2022-10-21T04:09:21.913Z,13.85
2022-10-21T04:10:21.913Z,13.86
2022-10-21T04:11:21.908Z,13.85
2022-10-21T04:12:21.905Z,13.79
2022-10-21T04:13:21.908Z,13.81
2022-10-21T04:14:21.903Z,13.83
2022-10-21T04:15:21.906Z,13.87
2022-10-21T04:16:21.907Z,13.85
2022-10-21T04:17:21.900Z,13.85
2022-10-21T04:18:21.924Z,13.90
2022-10-21T04:19:21.897Z,13.90
2022-10-21T04:20:21.893Z,13.86
2022-10-21T04:22:21.894Z,13.81
2022-10-21T04:23:21.889Z,13.87
2022-10-21T04:24:21.889Z,13.86
2022-10-21T04:25:21.886Z,13.90
2022-10-21T04:26:21.885Z,13.89
2022-10-21T04:27:21.884Z,13.83
2022-10-21T04:28:21.881Z,13.86
2022-10-21T04:29:21.880Z,13.92
2022-10-21T04:30:21.880Z,13.95
2022-10-21T04:31:21.877Z,13.93
2022-10-21T04:32:21.877Z,13.93
2022-10-21T04:33:21.874Z,13.86
2022-10-21T04:34:21.892Z,13.83
2022-10-21T04:35:21.870Z,13.79
2022-10-21T04:36:21.869Z,13.79
2022-10-21T04:37:21.870Z,13.95
2022-10-21T04:38:21.869Z,13.90
2022-10-21T04:39:21.866Z,13.97
2022-10-21T04:40:21.865Z,13.85
2022-10-21T04:41:21.865Z,13.83
2022-10-21T04:42:21.988Z,13.89
2022-10-21T04:43:21.858Z,13.79
2022-10-21T04:44:21.868Z,13.87
2022-10-21T04:45:21.857Z,13.97
2022-10-21T04:46:21.855Z,13.90
2022-10-21T04:47:21.872Z,13.89
2022-10-21T04:48:21.851Z,13.90
2022-10-21T04:49:21.853Z,13.77
2022-10-21T04:50:21.870Z,13.92
2022-10-21T04:51:22.005Z,13.92
2022-10-21T04:52:21.848Z,13.93
2022-10-21T04:53:21.847Z,13.89
2022-10-21T04:54:21.845Z,13.87
2022-10-21T04:55:21.844Z,13.89
2022-10-21T04:56:21.839Z,13.85
2022-10-21T04:57:21.840Z,13.85
2022-10-21T04:58:22.298Z,13.87
2022-10-21T04:59:21.837Z,13.86
2022-10-21T05:00:21.837Z,13.87
2022-10-21T05:01:21.910Z,13.85
2022-10-21T05:02:24.585Z,13.89
2022-10-21T05:03:21.835Z,13.89
2022-10-21T05:04:21.837Z,13.95
2022-10-21T05:05:21.829Z,13.90
2022-10-21T05:06:21.849Z,13.92
2022-10-21T05:07:21.830Z,13.90
2022-10-21T05:08:21.825Z,13.99
2022-10-21T05:09:21.824Z,13.95
2022-10-21T05:10:21.821Z,13.87
2022-10-21T05:11:21.823Z,14.03
2022-10-21T05:12:21.886Z,13.87
2022-10-21T05:13:21.815Z,14.05
2022-10-21T05:14:22.858Z,13.97
2022-10-21T05:15:21.815Z,13.96
2022-10-21T05:16:21.812Z,13.97
2022-10-21T05:17:21.818Z,13.97
2022-10-21T05:18:21.807Z,13.97
2022-10-21T05:19:21.807Z,14.00
2022-10-21T05:20:21.803Z,13.99
2022-10-21T05:21:21.805Z,14.03
2022-10-21T05:22:21.822Z,14.00
2022-10-21T05:23:21.802Z,14.04
2022-10-21T05:24:21.799Z,14.07
2022-10-21T05:25:23.032Z,13.97
2022-10-21T05:26:21.797Z,13.93
2022-10-21T05:27:21.796Z,14.03
2022-10-21T05:28:21.803Z,14.03
2022-10-21T05:29:21.793Z,14.00
2022-10-21T05:30:21.794Z,14.07
2022-10-21T05:31:21.790Z,14.05
2022-10-21T05:32:21.788Z,13.95
2022-10-21T05:33:21.788Z,13.96
2022-10-21T05:34:21.786Z,14.07
2022-10-21T05:35:21.788Z,13.93
2022-10-21T05:36:23.983Z,14.07
2022-10-21T05:37:21.785Z,13.97
2022-10-21T05:38:21.799Z,13.92
2022-10-21T05:39:21.778Z,13.97
2022-10-21T05:40:21.777Z,14.07
2022-10-21T05:41:21.778Z,14.11
2022-10-21T05:42:21.777Z,14.07
2022-10-21T05:43:21.775Z,14.04
2022-10-21T05:44:21.775Z,14.03
2022-10-21T05:45:21.770Z,14.10
2022-10-21T05:46:21.770Z,13.97
2022-10-21T05:47:21.779Z,14.00
2022-10-21T05:48:21.763Z,13.99
2022-10-21T05:49:21.767Z,14.00
2022-10-21T05:50:21.766Z,13.96
2022-10-21T05:51:21.762Z,14.10
2022-10-21T05:52:21.761Z,14.03
2022-10-21T05:53:21.769Z,14.05
2022-10-21T05:54:21.782Z,14.03
2022-10-21T05:55:21.757Z,14.07
2022-10-21T05:56:21.754Z,14.03
2022-10-21T05:57:21.753Z,13.96
2022-10-21T05:58:21.750Z,14.03
2022-10-21T05:59:21.747Z,14.04
2022-10-21T06:00:21.751Z,14.05
2022-10-21T06:01:21.816Z,13.89
2022-10-21T06:02:21.743Z,13.95
2022-10-21T06:03:21.746Z,13.97
2022-10-21T06:04:21.742Z,13.95
2022-10-21T06:05:21.743Z,13.93
2022-10-21T06:06:21.739Z,13.97
2022-10-21T06:07:21.838Z,14.07
2022-10-21T06:08:21.735Z,13.99
2022-10-21T06:09:21.735Z,13.97
2022-10-21T06:10:24.251Z,13.96
2022-10-21T06:11:21.731Z,14.07
2022-10-21T06:12:21.730Z,14.05
2022-10-21T06:13:21.735Z,14.03
2022-10-21T06:14:21.729Z,14.04
2022-10-21T06:15:21.732Z,13.97
2022-10-21T06:16:21.725Z,14.04
2022-10-21T06:17:21.728Z,14.05
2022-10-21T06:18:21.724Z,14.10
2022-10-21T06:19:21.720Z,14.05
2022-10-21T06:20:21.718Z,14.07
2022-10-21T06:21:21.722Z,14.08
2022-10-21T06:22:21.719Z,14.05
2022-10-21T06:23:21.717Z,14.07
2022-10-21T06:24:21.720Z,14.11
2022-10-21T06:25:21.717Z,14.04
2022-10-21T06:26:21.731Z,14.12
2022-10-21T06:27:21.716Z,14.08
2022-10-21T06:28:21.713Z,14.12
2022-10-21T06:29:21.711Z,14.14
2022-10-21T06:30:21.706Z,14.14
2022-10-21T06:31:21.709Z,14.18
2022-10-21T06:32:21.704Z,14.12
2022-10-21T06:33:26.135Z,14.12
2022-10-21T06:34:21.706Z,14.11
2022-10-21T06:35:21.703Z,14.14
2022-10-21T06:36:21.701Z,14.20
2022-10-21T06:37:21.696Z,14.15
2022-10-21T06:38:21.698Z,14.17
2022-10-21T06:39:21.698Z,14.15
2022-10-21T06:40:21.694Z,14.11
2022-10-21T06:41:21.693Z,14.20
2022-10-21T06:42:21.708Z,14.11
2022-10-21T06:44:21.686Z,14.12
2022-10-21T06:45:21.693Z,14.18
2022-10-21T06:46:21.685Z,14.10
2022-10-21T06:47:21.683Z,14.15
2022-10-21T06:48:21.681Z,14.26
2022-10-21T06:49:21.743Z,14.20
2022-10-21T06:50:21.682Z,14.18
2022-10-21T06:51:21.678Z,14.22
2022-10-21T06:52:21.743Z,14.25
2022-10-21T06:53:21.685Z,14.20
2022-10-21T06:54:21.676Z,14.14
2022-10-21T06:55:21.674Z,14.30
2022-10-21T06:56:21.672Z,14.17
2022-10-21T06:57:21.668Z,14.20
2022-10-21T06:58:21.692Z,14.18
2022-10-21T06:59:21.666Z,14.20
2022-10-21T07:00:21.719Z,14.15
2022-10-21T07:01:33.504Z,14.14
2022-10-21T07:02:21.662Z,14.20
2022-10-21T07:03:21.667Z,14.30
2022-10-21T07:04:21.663Z,14.22
2022-10-21T07:05:21.663Z,14.17
2022-10-21T07:06:21.694Z,14.23
2022-10-21T07:07:21.657Z,14.26
2022-10-21T07:08:22.532Z,14.23
2022-10-21T07:09:21.832Z,14.20
2022-10-21T07:10:21.653Z,14.40
2022-10-21T07:11:21.651Z,14.36
2022-10-21T07:12:21.655Z,14.25
2022-10-21T07:13:25.603Z,14.28
2022-10-21T07:14:21.670Z,14.30
2022-10-21T07:15:21.643Z,14.30
2022-10-21T07:16:21.650Z,14.37
2022-10-21T07:17:21.643Z,14.36
2022-10-21T07:18:21.647Z,14.32
2022-10-21T07:19:21.642Z,14.29
2022-10-21T07:20:21.639Z,14.33
2022-10-21T07:21:21.637Z,14.35
2022-10-21T07:22:21.636Z,14.33
2022-10-21T07:23:21.640Z,14.33
2022-10-21T07:24:22.809Z,14.32
2022-10-21T07:25:21.634Z,14.40
2022-10-21T07:26:21.635Z,14.36
2022-10-21T07:27:21.627Z,14.33
2022-10-21T07:28:21.631Z,14.44
2022-10-21T07:29:21.636Z,14.35
2022-10-21T07:30:21.646Z,14.44
2022-10-21T07:31:21.625Z,14.33
2022-10-21T07:32:21.624Z,14.37
2022-10-21T07:33:21.630Z,14.40
2022-10-21T07:34:21.629Z,14.43
2022-10-21T07:35:21.626Z,14.40
2022-10-21T07:36:21.620Z,14.44
2022-10-21T07:37:21.616Z,14.41
2022-10-21T07:38:22.894Z,14.37
2022-10-21T07:39:21.613Z,14.37
2022-10-21T07:40:21.613Z,14.37
2022-10-21T07:41:21.613Z,14.37
2022-10-21T07:42:21.613Z,14.36
2022-10-21T07:43:21.611Z,14.37
2022-10-21T07:44:21.611Z,14.43
2022-10-21T07:45:21.611Z,14.41
2022-10-21T07:46:21.641Z,14.37
2022-10-21T07:47:21.613Z,14.41
2022-10-21T07:48:21.605Z,14.43
2022-10-21T07:49:21.600Z,14.41
2022-10-21T07:50:21.608Z,14.37
2022-10-21T07:51:22.408Z,14.43
2022-10-21T07:52:21.601Z,14.44
2022-10-21T07:53:21.598Z,14.44
2022-10-21T07:54:21.595Z,14.41
2022-10-21T07:55:21.593Z,14.43
2022-10-21T07:56:21.595Z,14.44
2022-10-21T07:57:21.600Z,14.45
2022-10-21T07:58:21.693Z,14.55
2022-10-21T07:59:21.598Z,14.51
2022-10-21T08:00:21.664Z,14.50
2022-10-21T08:01:21.671Z,14.53
2022-10-21T08:02:21.608Z,14.43
2022-10-21T08:03:21.583Z,14.51
2022-10-21T08:04:21.582Z,14.50
2022-10-21T08:05:21.591Z,14.54
2022-10-21T08:06:21.583Z,14.50
2022-10-21T08:07:21.579Z,14.43
2022-10-21T08:08:21.579Z,14.44
2022-10-21T08:09:21.575Z,14.48
2022-10-21T08:10:21.784Z,14.48
2022-10-21T08:11:21.575Z,14.45
2022-10-21T08:12:21.576Z,14.51
2022-10-21T08:13:21.580Z,14.55
2022-10-21T08:14:21.575Z,14.45
2022-10-21T08:15:21.569Z,14.50
2022-10-21T08:16:21.571Z,14.48
2022-10-21T08:17:21.566Z,14.50
2022-10-21T08:18:21.586Z,14.58
2022-10-21T08:19:21.563Z,14.50
2022-10-21T08:20:21.564Z,14.54
2022-10-21T08:21:21.560Z,14.53
2022-10-21T08:22:21.563Z,14.53
2022-10-21T08:23:21.556Z,14.51
2022-10-21T08:24:21.561Z,14.51
2022-10-21T08:25:21.554Z,14.51
2022-10-21T08:26:21.555Z,14.59
2022-10-21T08:27:21.551Z,14.48
2022-10-21T08:28:21.552Z,14.51
2022-10-21T08:29:21.554Z,14.50
2022-10-21T08:30:21.551Z,14.50
2022-10-21T08:31:21.556Z,14.48
2022-10-21T08:32:21.556Z,14.54
2022-10-21T08:33:21.546Z,14.48
2022-10-21T08:34:21.566Z,14.50
2022-10-21T08:35:21.541Z,14.54
2022-10-21T08:36:21.562Z,14.65
2022-10-21T08:37:24.905Z,14.48
2022-10-21T08:38:21.538Z,14.54
2022-10-21T08:39:21.537Z,14.60
2022-10-21T08:40:21.537Z,14.63
2022-10-21T08:41:21.538Z,14.54
2022-10-21T08:42:21.536Z,14.59
2022-10-21T08:43:21.530Z,14.69
2022-10-21T08:44:21.532Z,14.55
2022-10-21T08:45:21.529Z,14.66
2022-10-21T08:46:21.529Z,14.68
2022-10-21T08:47:21.526Z,14.63
2022-10-21T08:48:21.528Z,14.62
2022-10-21T08:49:24.076Z,14.68
2022-10-21T08:50:21.548Z,14.60
2022-10-21T08:51:21.520Z,14.70
2022-10-21T08:52:21.523Z,14.66
2022-10-21T08:53:21.518Z,14.66
2022-10-21T08:54:21.520Z,14.55
2022-10-21T08:55:21.519Z,14.60
2022-10-21T08:56:21.591Z,14.63
2022-10-21T08:57:21.521Z,14.62
2022-10-21T08:58:21.527Z,14.60
2022-10-21T08:59:21.515Z,14.66
2022-10-21T09:00:21.517Z,14.60
2022-10-21T09:01:21.510Z,14.55
2022-10-21T09:02:21.511Z,14.58
2022-10-21T09:03:21.581Z,14.62
2022-10-21T09:04:21.511Z,14.60
2022-10-21T09:05:21.590Z,14.63
2022-10-21T09:06:21.522Z,14.54
2022-10-21T09:07:21.502Z,14.55
2022-10-21T09:08:21.498Z,14.69
2022-10-21T09:09:21.629Z,14.59
2022-10-21T09:10:21.501Z,14.55
2022-10-21T09:11:21.495Z,14.55
2022-10-21T09:12:21.495Z,14.54
2022-10-21T09:13:21.492Z,14.65
2022-10-21T09:14:21.528Z,14.69
2022-10-21T09:15:21.489Z,14.55
2022-10-21T09:16:21.490Z,14.60
2022-10-21T09:17:21.489Z,14.65
2022-10-21T09:18:21.492Z,14.59
2022-10-21T09:19:21.483Z,14.65
2022-10-21T09:20:21.489Z,14.54
2022-10-21T09:21:21.483Z,14.65
2022-10-21T09:22:34.671Z,14.62
2022-10-21T09:23:21.536Z,14.60
2022-10-21T09:24:21.480Z,14.54
2022-10-21T09:25:21.479Z,14.65
2022-10-21T09:26:22.119Z,14.62
2022-10-21T09:27:31.839Z,14.55
2022-10-21T09:28:21.475Z,14.59
2022-10-21T09:29:21.477Z,14.63
2022-10-21T09:30:21.476Z,14.66
2022-10-21T09:31:21.468Z,14.69
2022-10-21T09:32:21.507Z,14.62
2022-10-21T09:33:21.467Z,14.66
2022-10-21T09:34:21.466Z,14.69
2022-10-21T09:35:21.463Z,14.69
2022-10-21T09:36:21.480Z,14.69
2022-10-21T09:37:21.460Z,14.73
2022-10-21T09:38:21.481Z,14.72
2022-10-21T09:39:21.458Z,14.69
2022-10-21T09:40:21.461Z,14.70
2022-10-21T09:42:42.703Z,14.70
2022-10-21T09:43:21.453Z,14.73
2022-10-21T09:44:21.453Z,14.70
2022-10-21T09:45:21.451Z,14.69
2022-10-21T09:46:21.462Z,14.77
2022-10-21T09:47:21.452Z,14.69
2022-10-21T09:48:21.452Z,14.72
2022-10-21T09:49:53.971Z,14.70
2022-10-21T09:50:21.511Z,14.72
2022-10-21T09:51:21.444Z,14.72
2022-10-21T09:52:21.443Z,14.77
2022-10-21T09:53:24.145Z,14.72
2022-10-21T09:54:21.470Z,14.72
2022-10-21T09:55:21.438Z,14.69
2022-10-21T09:56:21.444Z,14.73
2022-10-21T09:57:21.438Z,14.82
2022-10-21T09:58:21.437Z,14.78
2022-10-21T09:59:21.494Z,14.89
2022-10-21T10:00:21.435Z,14.86
2022-10-21T10:01:21.431Z,14.86
2022-10-21T10:02:21.463Z,14.91
2022-10-21T10:03:21.427Z,14.92
2022-10-21T10:04:21.434Z,14.94
2022-10-21T10:05:21.427Z,15.00
2022-10-21T10:06:21.428Z,15.02
2022-10-21T10:07:21.423Z,14.94
2022-10-21T10:08:21.427Z,14.92
2022-10-21T10:09:21.422Z,14.92
2022-10-21T10:10:21.441Z,14.88
2022-10-21T10:11:21.421Z,14.88
2022-10-21T10:12:21.421Z,14.88
2022-10-21T10:13:21.419Z,14.88
2022-10-21T10:14:21.417Z,14.81
2022-10-21T10:15:21.417Z,14.88
2022-10-21T10:16:21.414Z,14.82
2022-10-21T10:17:21.412Z,14.84
2022-10-21T10:18:21.410Z,14.85
2022-10-21T10:19:21.407Z,14.89
2022-10-21T10:20:21.414Z,14.88
2022-10-21T10:21:21.408Z,14.91
2022-10-21T10:22:21.408Z,14.82
2022-10-21T10:23:21.404Z,14.85
2022-10-21T10:24:21.402Z,14.88
2022-10-21T10:25:21.402Z,14.88
2022-10-21T10:26:21.422Z,14.89
2022-10-21T10:27:21.398Z,14.85
2022-10-21T10:28:21.400Z,14.85
2022-10-21T10:29:21.396Z,14.82
2022-10-21T10:30:21.396Z,14.94
2022-10-21T10:31:21.397Z,14.88
2022-10-21T10:32:21.397Z,14.96
2022-10-21T10:33:21.392Z,14.91
2022-10-21T10:34:21.393Z,14.85
2022-10-21T10:35:21.392Z,14.88
2022-10-21T10:36:21.394Z,14.82
2022-10-21T10:37:21.388Z,14.81
2022-10-21T10:38:21.391Z,14.86
2022-10-21T10:39:21.385Z,14.85
2022-10-21T10:40:21.386Z,14.88
2022-10-21T10:41:21.385Z,14.86
2022-10-21T10:42:21.496Z,14.89
2022-10-21T10:43:21.380Z,14.77
2022-10-21T10:44:21.381Z,14.77
2022-10-21T10:45:21.377Z,14.86
2022-10-21T10:46:21.384Z,14.73
2022-10-21T10:47:21.378Z,14.77
2022-10-21T10:48:21.379Z,14.73
2022-10-21T10:49:21.377Z,14.72
2022-10-21T10:50:21.384Z,14.70
2022-10-21T10:51:21.375Z,14.73
2022-10-21T10:52:21.452Z,14.72
2022-10-21T10:53:21.375Z,14.73
2022-10-21T10:54:21.381Z,14.69
2022-10-21T10:55:21.378Z,14.73
2022-10-21T10:56:21.369Z,14.72
2022-10-21T10:57:26.528Z,14.79
2022-10-21T10:58:24.194Z,14.79
2022-10-21T10:59:21.367Z,14.79
2022-10-21T11:00:21.364Z,14.77
2022-10-21T11:01:21.381Z,14.78
2022-10-21T11:02:21.359Z,14.73
2022-10-21T11:03:25.796Z,14.73
2022-10-21T11:04:21.358Z,14.81
2022-10-21T11:05:21.354Z,14.72
2022-10-21T11:06:21.358Z,14.77
2022-10-21T11:07:21.354Z,14.85
2022-10-21T11:08:21.361Z,14.84
2022-10-21T11:09:23.845Z,14.86
2022-10-21T11:10:21.356Z,14.92
2022-10-21T11:11:21.349Z,14.86
2022-10-21T11:12:21.351Z,14.86
2022-10-21T11:13:21.346Z,14.85
2022-10-21T11:14:22.731Z,14.85
2022-10-21T11:15:21.351Z,14.99
2022-10-21T11:16:21.349Z,14.97
2022-10-21T11:17:21.345Z,14.91
2022-10-21T11:18:25.135Z,15.03
2022-10-21T11:19:21.343Z,14.92
2022-10-21T11:20:21.342Z,14.99
2022-10-21T11:21:21.343Z,14.99
2022-10-21T11:22:21.337Z,15.00
2022-10-21T11:23:21.342Z,14.99
2022-10-21T11:24:21.336Z,14.99
2022-10-21T11:25:21.336Z,15.09
2022-10-21T11:26:21.332Z,15.09
2022-10-21T11:27:21.331Z,15.04
2022-10-21T11:28:21.329Z,15.10
2022-10-21T11:29:21.335Z,15.10
2022-10-21T11:30:21.444Z,15.06
2022-10-21T11:31:21.337Z,15.07
2022-10-21T11:32:21.327Z,15.11
2022-10-21T11:33:21.339Z,15.06
2022-10-21T11:34:21.331Z,15.11
2022-10-21T11:35:21.328Z,15.17
2022-10-21T11:36:21.323Z,15.06
2022-10-21T11:37:21.325Z,15.17
2022-10-21T11:38:21.322Z,15.11
2022-10-21T11:39:21.660Z,15.18
2022-10-21T11:40:21.319Z,15.15
2022-10-21T11:41:24.202Z,15.15
2022-10-21T11:42:21.317Z,15.18
2022-10-21T11:43:21.318Z,15.11
2022-10-21T11:44:21.313Z,15.18
2022-10-21T11:45:21.316Z,15.25
2022-10-21T11:46:21.472Z,15.24
2022-10-21T11:47:21.314Z,15.22
2022-10-21T11:48:21.311Z,15.28
2022-10-21T11:49:21.317Z,15.28
2022-10-21T11:50:21.394Z,15.21
2022-10-21T11:51:21.314Z,15.25
2022-10-21T11:52:21.307Z,15.25
2022-10-21T11:53:21.310Z,15.29
2022-10-21T11:54:21.306Z,15.25
2022-10-21T11:55:21.315Z,15.35
2022-10-21T11:56:21.302Z,15.35
2022-10-21T11:57:21.308Z,15.37
2022-10-21T11:58:21.300Z,15.37
2022-10-21T11:59:21.355Z,15.37
2022-10-21T12:00:21.299Z,15.36
2022-10-21T12:01:21.298Z,15.35
2022-10-21T12:02:21.477Z,15.36
2022-10-21T12:03:21.299Z,15.42
2022-10-21T12:04:21.296Z,15.31
2022-10-21T12:05:21.296Z,15.37
2022-10-21T12:06:21.295Z,15.36
2022-10-21T12:07:21.295Z,15.44
2022-10-21T12:08:21.354Z,15.49
2022-10-21T12:09:21.323Z,15.43
2022-10-21T12:10:21.290Z,15.43
2022-10-21T12:11:21.291Z,15.46
2022-10-21T12:12:21.286Z,15.43
2022-10-21T12:13:21.290Z,15.47
2022-10-21T12:14:21.286Z,15.52
2022-10-21T12:15:21.288Z,15.58
2022-10-21T12:16:21.285Z,15.57
2022-10-21T12:17:21.286Z,15.61
2022-10-21T12:18:21.399Z,15.61
2022-10-21T12:19:21.440Z,15.62
2022-10-21T12:20:23.840Z,15.68
2022-10-21T12:21:21.280Z,15.67
2022-10-21T12:22:21.280Z,15.64
2022-10-21T12:23:21.279Z,15.64
2022-10-21T12:24:21.276Z,15.61
2022-10-21T12:25:21.279Z,15.62
2022-10-21T12:26:21.276Z,15.76
2022-10-21T12:27:21.276Z,15.73
2022-10-21T12:28:21.294Z,15.70
2022-10-21T12:29:21.277Z,15.70
2022-10-21T12:30:24.812Z,15.68
2022-10-21T12:31:21.272Z,15.64
2022-10-21T12:32:21.271Z,15.67
2022-10-21T12:33:21.273Z,15.72
2022-10-21T12:34:21.380Z,15.80
2022-10-21T12:35:21.267Z,15.72
2022-10-21T12:36:21.265Z,15.80
2022-10-21T12:37:21.268Z,15.83
2022-10-21T12:38:21.265Z,15.86
2022-10-21T12:39:21.356Z,15.83
2022-10-21T12:40:21.262Z,15.86
2022-10-21T12:41:21.266Z,15.82
2022-10-21T12:42:21.259Z,15.94
2022-10-21T12:43:21.260Z,15.88
2022-10-21T12:44:21.260Z,15.86
2022-10-21T12:45:21.259Z,15.95
2022-10-21T12:46:21.258Z,15.94
2022-10-21T12:47:21.261Z,15.90
2022-10-21T12:48:21.264Z,15.97
2022-10-21T12:49:21.254Z,16.00
2022-10-21T12:50:21.391Z,15.92
2022-10-21T12:51:21.255Z,15.97
2022-10-21T12:52:21.258Z,15.97
2022-10-21T12:53:21.264Z,15.97
2022-10-21T12:54:24.177Z,15.97
2022-10-21T12:55:21.249Z,15.98
2022-10-21T12:56:21.256Z,15.98
2022-10-21T12:57:21.259Z,15.97
2022-10-21T12:58:21.249Z,15.97